createdAt,value
2023-03-10T00:00:08.701Z,3.73
2023-03-10T00:02:36.480Z,3.60
2023-03-10T00:05:04.600Z,2.47
2023-03-10T00:07:32.288Z,3.17
2023-03-10T00:09:59.727Z,1.87
2023-03-10T00:12:28.562Z,2.77
2023-03-10T00:14:56.572Z,1.97
2023-03-10T00:17:24.065Z,2.33
2023-03-10T00:19:51.573Z,3.57
2023-03-10T00:22:19.030Z,2.63
2023-03-10T00:24:46.533Z,1.60
2023-03-10T00:27:14.002Z,2.60
2023-03-10T00:29:42.844Z,1.70
2023-03-10T00:32:10.351Z,1.87
2023-03-10T00:34:37.953Z,2.17
2023-03-10T00:37:05.424Z,2.10
2023-03-10T00:39:32.892Z,2.77
2023-03-10T00:42:00.748Z,1.53
2023-03-10T00:44:28.733Z,2.00
2023-03-10T00:46:57.599Z,1.30
2023-03-10T00:49:25.136Z,1.80
2023-03-10T00:51:52.578Z,1.87
2023-03-10T00:54:20.039Z,1.90
2023-03-10T00:56:47.566Z,1.97
2023-03-10T00:59:15.038Z,1.00
2023-03-10T01:01:43.634Z,1.70
2023-03-10T01:04:14.745Z,2.13
2023-03-10T01:06:44.615Z,1.53
2023-03-10T01:11:53.882Z,0.90
2023-03-10T01:14:21.504Z,1.47
2023-03-10T01:16:49.004Z,2.47
2023-03-10T01:19:18.416Z,1.00
2023-03-10T01:21:45.935Z,0.80
2023-03-10T01:24:16.168Z,0.80
2023-03-10T01:26:44.016Z,1.40
2023-03-10T01:29:11.488Z,1.53
2023-03-10T01:31:39.245Z,1.27
2023-03-10T01:34:06.790Z,1.00
2023-03-10T01:36:35.626Z,1.47
2023-03-10T01:39:03.130Z,1.60
2023-03-10T01:41:30.715Z,1.77
2023-03-10T01:43:58.276Z,1.47
2023-03-10T01:46:44.935Z,2.33
2023-03-10T01:49:25.540Z,2.00
2023-03-10T01:51:58.818Z,1.70
2023-03-10T01:54:31.805Z,1.30
2023-03-10T01:56:59.739Z,1.83
2023-03-10T01:59:28.441Z,1.50
2023-03-10T02:01:57.264Z,1.77
2023-03-10T02:04:33.300Z,1.67
2023-03-10T02:07:04.547Z,2.63
2023-03-10T02:09:34.958Z,0.83
2023-03-10T02:12:04.713Z,1.87
2023-03-10T02:14:33.005Z,1.00
2023-03-10T02:17:00.828Z,1.50
2023-03-10T02:19:38.348Z,2.67
2023-03-10T02:22:10.325Z,1.17
2023-03-10T02:24:46.310Z,2.60
2023-03-10T02:27:17.987Z,2.43
2023-03-10T02:29:58.894Z,1.50
2023-03-10T02:32:29.389Z,1.27
2023-03-10T02:34:57.372Z,1.33
2023-03-10T02:37:29.058Z,1.47
2023-03-10T02:39:57.023Z,1.10
2023-03-10T02:42:30.627Z,1.67
2023-03-10T02:44:58.230Z,1.37
2023-03-10T02:47:25.747Z,1.37
2023-03-10T02:49:53.394Z,1.30
2023-03-10T02:52:27.678Z,1.23
2023-03-10T02:54:55.316Z,1.43
2023-03-10T02:57:22.841Z,1.23
2023-03-10T02:59:51.626Z,1.77
2023-03-10T03:02:19.210Z,1.63
2023-03-10T03:04:46.719Z,1.83
2023-03-10T03:07:14.400Z,1.30
2023-03-10T03:09:41.959Z,1.67
2023-03-10T03:12:10.522Z,1.93
2023-03-10T03:14:38.017Z,2.13
2023-03-10T03:17:06.842Z,1.63
2023-03-10T03:19:34.324Z,1.33
2023-03-10T03:22:02.169Z,1.20
2023-03-10T03:24:31.996Z,1.73
2023-03-10T03:26:59.777Z,0.70
2023-03-10T03:29:27.493Z,0.80
2023-03-10T03:31:55.087Z,1.27
2023-03-10T03:34:23.975Z,1.20
2023-03-10T03:36:52.019Z,1.37
2023-03-10T03:39:19.622Z,0.70
2023-03-10T03:41:48.443Z,1.23
2023-03-10T03:44:16.139Z,0.83
2023-03-10T03:46:43.623Z,1.20
2023-03-10T03:49:11.479Z,1.37
2023-03-10T03:51:40.642Z,1.40
2023-03-10T03:54:08.126Z,0.93
2023-03-10T03:56:35.621Z,1.00
2023-03-10T03:59:03.126Z,1.23
2023-03-10T04:01:30.642Z,1.17
2023-03-10T04:03:58.226Z,1.60
2023-03-10T04:06:25.720Z,1.50
2023-03-10T04:08:54.622Z,1.90
2023-03-10T04:11:22.476Z,1.50
2023-03-10T04:13:49.957Z,3.43
2023-03-10T04:16:17.564Z,1.60
2023-03-10T04:18:45.644Z,1.50
2023-03-10T04:21:13.112Z,1.57
2023-03-10T04:23:42.206Z,1.23
2023-03-10T04:26:11.805Z,1.00
2023-03-10T04:28:39.295Z,1.20
2023-03-10T04:31:15.230Z,2.40
2023-03-10T04:33:42.745Z,1.40
2023-03-10T04:36:10.625Z,2.23
2023-03-10T04:38:38.994Z,1.60
2023-03-10T04:41:06.672Z,2.10
2023-03-10T04:43:35.457Z,1.40
2023-03-10T04:46:03.196Z,1.67
2023-03-10T04:48:30.990Z,2.87
2023-03-10T04:51:00.357Z,2.00
2023-03-10T04:53:28.182Z,2.13
2023-03-10T04:55:55.988Z,2.03
2023-03-10T04:58:23.754Z,2.03
2023-03-10T05:01:02.687Z,1.80
2023-03-10T05:03:30.557Z,1.60
2023-03-10T05:05:58.054Z,9.07
2023-03-10T05:08:25.520Z,1.97
2023-03-10T05:10:53.257Z,4.10
2023-03-10T05:13:20.798Z,1.10
2023-03-10T05:15:48.899Z,3.90
2023-03-10T05:18:17.847Z,2.30
2023-03-10T05:20:45.311Z,1.70
2023-03-10T05:23:12.746Z,1.30
2023-03-10T05:25:41.013Z,3.30
2023-03-10T05:28:08.492Z,1.10
2023-03-10T05:30:35.976Z,1.00
2023-03-10T05:33:03.441Z,3.03
2023-03-10T05:35:32.373Z,2.00
2023-03-10T05:38:00.122Z,1.67
2023-03-10T05:40:27.665Z,2.03
2023-03-10T05:42:55.137Z,1.73
2023-03-10T05:45:22.611Z,2.00
2023-03-10T05:47:50.093Z,1.90
2023-03-10T05:50:18.638Z,1.80
2023-03-10T05:52:47.459Z,2.40
2023-03-10T05:55:17.783Z,1.60
2023-03-10T05:57:45.378Z,2.90
2023-03-10T06:00:14.957Z,2.70
2023-03-10T06:02:42.583Z,2.40
2023-03-10T06:05:12.647Z,3.10
2023-03-10T06:07:40.308Z,3.67
2023-03-10T06:10:10.905Z,3.43
2023-03-10T06:12:38.934Z,3.37
2023-03-10T06:15:07.755Z,3.60
2023-03-10T06:17:35.222Z,3.20
2023-03-10T06:20:02.897Z,3.07
2023-03-10T06:22:31.444Z,2.40
2023-03-10T06:24:59.005Z,3.07
2023-03-10T06:27:27.803Z,3.63
2023-03-10T06:29:55.310Z,3.63
2023-03-10T06:32:22.911Z,2.97
2023-03-10T06:34:50.780Z,3.27
2023-03-10T06:37:18.430Z,2.30
2023-03-10T06:39:46.017Z,2.23
2023-03-10T06:42:13.497Z,3.77
2023-03-10T06:44:42.294Z,4.00
2023-03-10T06:47:09.888Z,4.23
2023-03-10T06:49:37.339Z,5.30
2023-03-10T06:52:05.290Z,3.93
2023-03-10T06:54:33.069Z,4.27
2023-03-10T06:57:00.526Z,5.93
2023-03-10T06:59:28.059Z,3.27
2023-03-10T07:01:56.868Z,4.03
2023-03-10T07:04:24.401Z,3.90
2023-03-10T07:06:52.106Z,4.27
2023-03-10T07:09:19.575Z,3.30
2023-03-10T07:11:47.368Z,3.90
2023-03-10T07:14:14.846Z,5.13
2023-03-10T07:16:42.732Z,4.77
2023-03-10T07:19:11.602Z,3.97
2023-03-10T07:21:39.135Z,3.20
2023-03-10T07:24:06.929Z,6.03
2023-03-10T07:26:34.561Z,4.90
2023-03-10T07:29:02.471Z,3.57
2023-03-10T07:31:30.316Z,4.27
2023-03-10T07:33:57.846Z,5.00
2023-03-10T07:36:27.121Z,4.87
2023-03-10T07:38:54.632Z,4.17
2023-03-10T07:41:22.784Z,3.97
2023-03-10T07:43:53.633Z,3.83
2023-03-10T07:46:22.111Z,3.60
2023-03-10T07:48:49.690Z,3.33
2023-03-10T07:51:17.206Z,3.47
2023-03-10T07:53:46.112Z,4.23
2023-03-10T07:56:15.055Z,3.83
2023-03-10T07:58:43.135Z,3.73
2023-03-10T08:01:16.392Z,3.30
2023-03-10T08:03:44.302Z,3.37
2023-03-10T08:06:17.541Z,3.83
2023-03-10T08:08:46.401Z,4.70
2023-03-10T08:11:13.927Z,3.03
2023-03-10T08:13:41.852Z,3.10
2023-03-10T08:16:09.768Z,3.53
2023-03-10T08:18:37.896Z,2.27
2023-03-10T08:21:06.630Z,4.00
2023-03-10T08:23:35.548Z,3.47
2023-03-10T08:26:07.116Z,3.37
2023-03-10T08:28:35.252Z,3.97
2023-03-10T08:31:09.488Z,3.17
2023-03-10T08:33:37.561Z,2.57
2023-03-10T08:36:08.740Z,4.27
2023-03-10T08:38:36.617Z,4.57
2023-03-10T08:41:14.937Z,2.73
2023-03-10T08:43:43.036Z,4.43
2023-03-10T08:46:11.855Z,3.70
2023-03-10T08:48:42.662Z,3.60
2023-03-10T08:51:10.457Z,4.10
2023-03-10T08:53:39.547Z,3.93
2023-03-10T08:56:08.024Z,4.50
2023-03-10T08:58:36.883Z,3.20
2023-03-10T09:01:05.119Z,3.00
2023-03-10T09:03:35.803Z,3.17
2023-03-10T09:06:03.636Z,4.00
2023-03-10T09:08:31.238Z,3.20
2023-03-10T09:10:58.918Z,5.67
2023-03-10T09:13:26.599Z,3.20
2023-03-10T09:15:55.390Z,4.27
2023-03-10T09:18:23.173Z,4.53
2023-03-10T09:20:51.274Z,2.67
2023-03-10T09:23:18.913Z,2.93
2023-03-10T09:25:46.431Z,3.93
2023-03-10T09:28:14.432Z,4.73
2023-03-10T09:30:42.951Z,3.73
2023-03-10T09:33:16.903Z,3.50
2023-03-10T09:35:52.837Z,4.30
2023-03-10T09:38:30.891Z,4.77
2023-03-10T09:41:08.757Z,2.80
2023-03-10T09:43:39.260Z,4.97
2023-03-10T09:46:15.445Z,3.17
2023-03-10T09:48:51.504Z,2.43
2023-03-10T09:51:22.713Z,2.33
2023-03-10T09:53:59.666Z,4.03
2023-03-10T09:56:32.487Z,3.63
2023-03-10T09:59:05.498Z,1.83
2023-03-10T10:01:34.213Z,1.87
2023-03-10T10:04:09.224Z,3.13
2023-03-10T10:06:39.899Z,1.20
2023-03-10T10:09:14.773Z,2.10
2023-03-10T10:11:42.378Z,2.20
2023-03-10T10:14:26.424Z,1.60
2023-03-10T10:17:03.550Z,2.37
2023-03-10T10:19:34.890Z,1.30
2023-03-10T10:22:11.279Z,1.30
2023-03-10T10:24:40.899Z,2.40
2023-03-10T10:27:08.692Z,1.80
2023-03-10T10:29:37.903Z,1.45
2023-03-10T10:32:08.239Z,1.90
2023-03-10T10:34:38.456Z,3.03
2023-03-10T10:37:23.096Z,2.15
2023-03-10T10:39:52.497Z,2.20
2023-03-10T10:42:24.296Z,1.50
2023-03-10T10:44:54.746Z,2.33
2023-03-10T10:47:30.176Z,1.65
2023-03-10T10:50:12.218Z,1.98
2023-03-10T10:52:39.734Z,1.93
2023-03-10T10:55:22.840Z,2.40
2023-03-10T10:57:56.428Z,3.57
2023-03-10T11:00:27.441Z,2.53
2023-03-10T11:02:55.625Z,2.97
2023-03-10T11:05:26.870Z,1.93
2023-03-10T11:07:54.310Z,2.20
2023-03-10T11:10:27.840Z,1.30
2023-03-10T11:13:05.687Z,1.97
2023-03-10T11:15:37.739Z,1.53
2023-03-10T11:18:14.006Z,2.83
2023-03-10T11:20:51.565Z,1.65
2023-03-10T11:23:25.158Z,1.88
2023-03-10T11:25:58.681Z,0.93
2023-03-10T11:28:40.690Z,1.50
2023-03-10T11:31:22.687Z,1.98
2023-03-10T11:33:55.768Z,1.25
2023-03-10T11:36:49.607Z,1.38
2023-03-10T11:39:29.595Z,0.70
2023-03-10T11:42:06.240Z,1.45
2023-03-10T11:44:39.924Z,1.30
2023-03-10T11:47:18.755Z,1.17
2023-03-10T11:49:50.700Z,0.90
2023-03-10T11:52:23.333Z,1.60
2023-03-10T11:54:57.399Z,1.00
2023-03-10T11:57:29.007Z,1.37
2023-03-10T11:59:58.605Z,1.47
2023-03-10T12:02:31.936Z,0.80
2023-03-10T12:05:03.870Z,0.80
2023-03-10T12:07:36.823Z,1.93
2023-03-10T12:10:14.247Z,1.07
2023-03-10T12:12:43.848Z,1.37
2023-03-10T12:15:17.908Z,1.50
2023-03-10T12:17:46.680Z,1.33
2023-03-10T12:20:33.075Z,2.17
2023-03-10T12:23:37.162Z,0.83
2023-03-10T12:26:04.758Z,1.23
2023-03-10T12:28:33.688Z,1.70
2023-03-10T12:31:02.305Z,1.27
2023-03-10T12:33:43.653Z,1.07
2023-03-10T12:36:15.418Z,0.90
2023-03-10T12:38:53.772Z,1.20
2023-03-10T12:41:42.909Z,1.53
2023-03-10T12:44:28.951Z,0.60
2023-03-10T12:47:01.802Z,0.70
2023-03-10T12:49:39.299Z,0.77
2023-03-10T12:52:20.832Z,0.63
2023-03-10T12:54:56.028Z,0.80
2023-03-10T12:57:30.781Z,0.90
2023-03-10T13:00:06.154Z,0.70
2023-03-10T13:02:39.585Z,1.00
2023-03-10T13:05:18.930Z,0.47
2023-03-10T13:07:48.473Z,1.03
2023-03-10T13:10:21.648Z,1.37
2023-03-10T13:12:52.222Z,0.67
2023-03-10T13:15:25.176Z,0.57
2023-03-10T13:17:55.165Z,0.70
2023-03-10T13:20:23.826Z,0.73
2023-03-10T13:22:55.524Z,0.60
2023-03-10T13:25:25.734Z,1.03
2023-03-10T13:27:54.531Z,1.43
2023-03-10T13:30:26.464Z,0.80
2023-03-10T13:32:56.184Z,0.63
2023-03-10T13:35:26.665Z,0.70
2023-03-10T13:38:11.219Z,1.03
2023-03-10T13:40:42.864Z,2.00
2023-03-10T13:43:28.083Z,1.07
2023-03-10T13:45:56.791Z,0.80
2023-03-10T13:48:25.400Z,0.70
2023-03-10T13:51:05.608Z,0.97
2023-03-10T13:53:33.344Z,1.47
2023-03-10T13:56:10.707Z,1.03
2023-03-10T13:58:39.133Z,0.90
2023-03-10T14:01:06.817Z,1.17
2023-03-10T14:03:35.292Z,0.77
2023-03-10T14:06:13.578Z,0.63
2023-03-10T14:08:41.115Z,1.00
2023-03-10T14:11:25.821Z,0.30
2023-03-10T14:13:53.329Z,0.97
2023-03-10T14:16:20.845Z,1.37
2023-03-10T14:18:48.339Z,2.40
2023-03-10T14:21:30.597Z,0.70
2023-03-10T14:24:03.780Z,0.63
2023-03-10T14:26:33.025Z,1.00
2023-03-10T14:29:02.373Z,0.83
2023-03-10T14:31:29.904Z,1.23
2023-03-10T14:33:57.869Z,0.70
2023-03-10T14:36:25.820Z,0.87
2023-03-10T14:38:53.294Z,1.30
2023-03-10T14:41:24.788Z,1.37
2023-03-10T14:43:53.985Z,0.90
2023-03-10T14:46:21.680Z,1.27
2023-03-10T14:48:49.339Z,2.00
2023-03-10T14:51:32.567Z,1.10
2023-03-10T14:54:02.584Z,0.87
2023-03-10T14:56:31.177Z,0.93
2023-03-10T14:59:02.159Z,0.87
2023-03-10T15:01:30.162Z,0.70
2023-03-10T15:03:57.641Z,2.30
2023-03-10T15:06:25.135Z,0.87
2023-03-10T15:08:52.603Z,0.70
2023-03-10T15:11:35.644Z,0.57
2023-03-10T15:14:05.968Z,0.70
2023-03-10T15:16:33.461Z,0.93
2023-03-10T15:19:00.924Z,0.60
2023-03-10T15:21:28.909Z,0.30
2023-03-10T15:23:56.656Z,0.50
2023-03-10T15:26:24.131Z,0.23
2023-03-10T15:28:51.583Z,0.47
2023-03-10T15:31:20.616Z,0.10
2023-03-10T15:33:49.139Z,1.00
2023-03-10T15:36:16.659Z,0.20
2023-03-10T15:38:44.147Z,0.23
2023-03-10T15:41:13.442Z,0.53
2023-03-10T15:43:41.277Z,0.43
2023-03-10T15:46:09.493Z,1.30
2023-03-10T15:48:38.481Z,0.60
2023-03-10T15:51:09.981Z,0.13
2023-03-10T15:53:37.800Z,0.20
2023-03-10T15:56:09.395Z,0.10
2023-03-10T15:58:36.970Z,1.50
2023-03-10T16:01:08.673Z,0.10
2023-03-10T16:03:38.421Z,0.37
2023-03-10T16:06:09.442Z,0.27
2023-03-10T16:08:38.711Z,0.23
2023-03-10T16:11:09.971Z,0.30
2023-03-10T16:13:37.468Z,0.23
2023-03-10T16:16:07.226Z,0.20
2023-03-10T16:18:35.210Z,0.67
2023-03-10T16:21:04.436Z,0.27
2023-03-10T16:23:33.724Z,0.00
2023-03-10T16:26:10.596Z,0.27
2023-03-10T16:28:40.004Z,0.20
2023-03-10T16:31:07.625Z,0.57
2023-03-10T16:33:36.069Z,0.40
2023-03-10T16:36:07.687Z,0.87
2023-03-10T16:38:36.425Z,0.20
2023-03-10T16:41:04.741Z,0.70
2023-03-10T16:43:33.639Z,0.20
2023-03-10T16:46:08.234Z,0.40
2023-03-10T16:48:38.202Z,0.20
2023-03-10T16:51:25.152Z,0.40
2023-03-10T16:53:53.932Z,0.30
2023-03-10T16:56:22.116Z,0.53
2023-03-10T16:58:49.640Z,0.27
2023-03-10T17:01:17.204Z,0.23
2023-03-10T17:03:44.845Z,1.13
2023-03-10T17:06:15.885Z,0.67
2023-03-10T17:08:43.382Z,0.50
2023-03-10T17:11:19.204Z,0.50
2023-03-10T17:13:47.429Z,0.43
2023-03-10T17:16:15.871Z,0.53
2023-03-10T17:18:43.652Z,0.33
2023-03-10T17:21:15.619Z,0.40
2023-03-10T17:23:43.863Z,0.40
2023-03-10T17:26:12.922Z,0.50
2023-03-10T17:28:41.907Z,0.30
2023-03-10T17:31:10.478Z,0.50
2023-03-10T17:33:37.964Z,1.43
2023-03-10T17:36:06.418Z,1.13
2023-03-10T17:38:36.072Z,0.43
2023-03-10T17:41:05.927Z,0.60
2023-03-10T17:43:34.783Z,0.63
2023-03-10T17:46:04.443Z,0.63
2023-03-10T17:48:33.200Z,0.40
2023-03-10T17:51:01.056Z,0.50
2023-03-10T17:53:29.939Z,0.50
2023-03-10T17:55:59.398Z,0.30
2023-03-10T17:58:26.981Z,0.40
2023-03-10T18:00:54.769Z,0.90
2023-03-10T18:03:22.958Z,0.40
2023-03-10T18:05:50.504Z,0.47
2023-03-10T18:08:17.979Z,0.30
2023-03-10T18:10:45.553Z,0.33
2023-03-10T18:13:14.793Z,0.40
2023-03-10T18:15:42.323Z,0.20
2023-03-10T18:18:09.879Z,0.40
2023-03-10T18:20:37.474Z,0.53
2023-03-10T18:23:04.987Z,0.40
2023-03-10T18:25:32.456Z,0.70
2023-03-10T18:28:00.009Z,0.33
2023-03-10T18:30:28.804Z,0.30
2023-03-10T18:32:56.382Z,0.30
2023-03-10T18:35:23.878Z,0.30
2023-03-10T18:37:51.431Z,0.30
2023-03-10T18:40:18.937Z,0.40
2023-03-10T18:42:46.554Z,0.40
2023-03-10T18:45:14.020Z,0.23
2023-03-10T18:47:43.218Z,1.33
2023-03-10T18:50:14.026Z,0.40
2023-03-10T18:52:41.903Z,0.53
2023-03-10T18:55:11.854Z,1.43
2023-03-10T18:57:39.473Z,1.00
2023-03-10T19:00:09.360Z,0.97
2023-03-10T19:02:36.899Z,0.77
2023-03-10T19:05:06.548Z,0.90
2023-03-10T19:07:36.640Z,1.47
2023-03-10T19:10:04.636Z,1.20
2023-03-10T19:12:32.277Z,1.20
2023-03-10T19:15:05.151Z,1.20
2023-03-10T19:17:33.218Z,1.23
2023-03-10T19:20:00.737Z,1.20
2023-03-10T19:22:30.400Z,1.30
2023-03-10T19:24:57.872Z,1.30
2023-03-10T19:27:25.534Z,1.30
2023-03-10T19:29:53.488Z,1.30
2023-03-10T19:32:22.087Z,1.40
2023-03-10T19:34:49.681Z,1.60
2023-03-10T19:37:17.402Z,2.20
2023-03-10T19:39:46.345Z,1.80
2023-03-10T19:42:13.842Z,2.67
2023-03-10T19:44:41.307Z,2.50
2023-03-10T19:47:08.905Z,1.90
2023-03-10T19:49:36.426Z,2.57
2023-03-10T19:52:03.938Z,2.50
2023-03-10T19:54:31.783Z,2.40
2023-03-10T19:57:00.711Z,2.33
2023-03-10T19:59:28.356Z,2.00
2023-03-10T20:01:55.997Z,1.70
2023-03-10T20:04:23.615Z,1.90
2023-03-10T20:06:51.093Z,2.43
2023-03-10T20:09:18.880Z,2.67
2023-03-10T20:11:46.516Z,3.00
2023-03-10T20:14:15.319Z,3.10
2023-03-10T20:16:42.865Z,3.20
2023-03-10T20:19:10.407Z,3.23
2023-03-10T20:21:37.902Z,3.30
2023-03-10T20:24:06.143Z,3.30
2023-03-10T20:26:33.642Z,3.87
2023-03-10T20:29:01.847Z,3.20
2023-03-10T20:31:34.058Z,2.80
2023-03-10T20:34:01.764Z,3.30
2023-03-10T20:36:29.282Z,3.10
2023-03-10T20:38:56.730Z,3.93
2023-03-10T20:41:24.404Z,3.00
2023-03-10T20:43:53.421Z,3.13
2023-03-10T20:46:22.657Z,3.10
2023-03-10T20:48:51.649Z,2.60
2023-03-10T20:51:19.576Z,2.63
2023-03-10T20:53:47.118Z,2.80
2023-03-10T20:56:16.460Z,2.37
2023-03-10T20:58:43.927Z,2.23
2023-03-10T21:01:16.471Z,2.20
2023-03-10T21:03:43.993Z,2.10
2023-03-10T21:06:12.940Z,2.13
2023-03-10T21:08:40.406Z,2.40
2023-03-10T21:11:07.931Z,1.90
2023-03-10T21:13:35.438Z,2.57
2023-03-10T21:16:02.898Z,2.00
2023-03-10T21:18:30.404Z,2.13
2023-03-10T21:20:57.867Z,1.83
2023-03-10T21:23:26.960Z,2.10
2023-03-10T21:25:54.462Z,2.30
2023-03-10T21:28:21.970Z,2.00
2023-03-10T21:30:49.476Z,1.77
2023-03-10T21:33:16.975Z,1.70
2023-03-10T21:35:44.513Z,1.90
2023-03-10T21:38:12.382Z,2.10
2023-03-10T21:40:41.174Z,2.37
2023-03-10T21:43:08.646Z,1.90
2023-03-10T21:45:37.342Z,2.20
2023-03-10T21:48:06.205Z,2.10
2023-03-10T21:50:33.684Z,2.00
2023-03-10T21:53:01.289Z,1.90
2023-03-10T21:55:29.683Z,2.00
2023-03-10T21:57:58.713Z,1.67
2023-03-10T22:00:26.819Z,1.90
2023-03-10T22:02:54.451Z,2.00
2023-03-10T22:05:22.397Z,1.70
2023-03-10T22:07:50.174Z,1.70
2023-03-10T22:10:18.554Z,1.40
2023-03-10T22:12:46.242Z,1.57
2023-03-10T22:15:17.248Z,1.40
2023-03-10T22:17:44.716Z,2.00
2023-03-10T22:20:16.158Z,1.67
2023-03-10T22:22:43.666Z,1.37
2023-03-10T22:25:11.580Z,1.63
2023-03-10T22:27:39.186Z,1.20
2023-03-10T22:30:08.013Z,1.30
2023-03-10T22:32:36.965Z,1.43
2023-03-10T22:35:04.870Z,1.30
2023-03-10T22:37:32.391Z,1.40
2023-03-10T22:40:00.149Z,1.40
2023-03-10T22:42:27.668Z,1.47
2023-03-10T22:44:55.150Z,1.40
2023-03-10T22:47:23.054Z,1.40
2023-03-10T22:49:51.850Z,1.50
2023-03-10T22:52:19.330Z,1.87
2023-03-10T22:54:46.863Z,1.50
2023-03-10T22:57:15.151Z,1.60
2023-03-10T22:59:42.880Z,1.63
2023-03-10T23:02:10.694Z,1.87
2023-03-10T23:04:38.959Z,1.50
2023-03-10T23:07:07.977Z,1.47
2023-03-10T23:09:35.447Z,1.57
2023-03-10T23:12:03.054Z,1.60
2023-03-10T23:14:30.593Z,1.50
2023-03-10T23:16:58.102Z,1.60
2023-03-10T23:19:25.585Z,1.63
2023-03-10T23:21:53.060Z,1.63
2023-03-10T23:24:22.125Z,1.40
2023-03-10T23:26:49.631Z,1.57
2023-03-10T23:29:17.122Z,1.40
2023-03-10T23:31:44.680Z,1.77
2023-03-10T23:34:12.179Z,1.40
2023-03-10T23:36:39.910Z,1.50
2023-03-10T23:39:11.228Z,1.53
2023-03-10T23:41:40.086Z,1.30
2023-03-10T23:44:07.699Z,1.07
2023-03-10T23:46:35.291Z,1.33
2023-03-10T23:49:02.776Z,1.47
2023-03-10T23:51:30.736Z,1.30
2023-03-10T23:53:58.278Z,1.33
2023-03-10T23:56:25.770Z,1.30
2023-03-10T23:58:57.012Z,1.43
